Terminal Aerodrome Forecast
Issued by NWS

Home | Current Version | Previous Version | Text Only | Print | Product List | Glossary On
Versions: 1 2 3 4 5 6 7 8 9 10 11 12 13 14 15 16 17 18 19
000
FTUS41 KCAR 300959 AAB
TAFPQI
TAF AMD
KPQI 300959Z 3010/3106 33004KT P6SM FEW080
     FM301200 32005KT P6SM FEW250
     FM301500 31006KT P6SM SCT040
     FM302300 30005KT P6SM FEW250=

USA.gov is the U.S. government's official web portal to all federal, state and local government web resources and services.